createdAt,value
2022-09-18T00:01:03.273Z,3.00
2022-09-18T00:03:30.947Z,1.00
2022-09-18T00:05:58.556Z,3.25
2022-09-18T00:08:26.637Z,3.75
2022-09-18T00:10:54.615Z,1.50
2022-09-18T00:13:22.234Z,1.00
2022-09-18T00:15:50.041Z,3.25
2022-09-18T00:18:17.614Z,6.00
2022-09-18T00:20:45.166Z,6.00
2022-09-18T00:23:12.868Z,5.00
2022-09-18T00:25:40.626Z,4.00
2022-09-18T00:28:08.185Z,9.25
2022-09-18T00:30:36.228Z,9.00
2022-09-18T00:33:04.486Z,6.00
2022-09-18T00:35:32.406Z,7.00
2022-09-18T00:38:00.005Z,8.00
2022-09-18T00:40:27.605Z,4.00
2022-09-18T00:42:55.158Z,7.50
2022-09-18T00:45:22.705Z,6.50
2022-09-18T00:47:50.650Z,5.50
2022-09-18T00:50:18.190Z,9.50
2022-09-18T00:52:47.003Z,5.25
2022-09-18T00:55:14.510Z,6.75
2022-09-18T00:57:42.046Z,10.75
2022-09-18T01:00:12.707Z,7.50
2022-09-18T01:02:40.241Z,9.00
2022-09-18T01:05:07.943Z,5.50
2022-09-18T01:07:35.552Z,3.00
2022-09-18T01:10:03.108Z,7.00
2022-09-18T01:12:31.018Z,7.50
2022-09-18T01:14:58.615Z,8.00
2022-09-18T01:17:26.157Z,8.00
2022-09-18T01:19:53.895Z,6.75
2022-09-18T01:22:21.485Z,6.00
2022-09-18T01:24:49.418Z,9.75
2022-09-18T01:27:17.032Z,10.00
2022-09-18T01:29:45.012Z,8.00
2022-09-18T01:32:12.534Z,4.00
2022-09-18T01:34:40.078Z,8.50
2022-09-18T01:37:08.322Z,6.75
2022-09-18T01:39:35.858Z,9.00
2022-09-18T01:42:03.542Z,12.50
2022-09-18T01:44:31.130Z,8.50
2022-09-18T01:46:58.714Z,9.25
2022-09-18T01:49:26.676Z,9.25
2022-09-18T01:51:54.251Z,6.00
2022-09-18T01:54:21.964Z,8.25
2022-09-18T01:56:49.500Z,6.50
2022-09-18T01:59:17.560Z,7.00
2022-09-18T02:01:45.660Z,10.00
2022-09-18T02:04:13.358Z,7.00
2022-09-18T02:06:40.972Z,10.00
2022-09-18T02:09:08.591Z,9.00
2022-09-18T02:11:36.126Z,10.00
2022-09-18T02:14:05.917Z,12.00
2022-09-18T02:16:33.533Z,13.50
2022-09-18T02:19:01.231Z,7.00
2022-09-18T02:21:29.148Z,6.50
2022-09-18T02:23:56.670Z,6.50
2022-09-18T02:26:24.597Z,9.75
2022-09-18T02:28:52.195Z,8.00
2022-09-18T02:31:19.820Z,8.00
2022-09-18T02:33:47.401Z,9.50
2022-09-18T02:36:15.323Z,9.50
2022-09-18T02:38:42.875Z,7.00
2022-09-18T02:41:10.870Z,9.00
2022-09-18T02:43:38.626Z,7.75
2022-09-18T02:46:06.220Z,8.75
2022-09-18T02:48:33.788Z,9.00
2022-09-18T02:51:01.569Z,9.00
2022-09-18T02:53:29.132Z,9.75
2022-09-18T02:55:56.712Z,11.00
2022-09-18T02:58:24.305Z,6.75
2022-09-18T03:00:51.940Z,10.50
2022-09-18T03:03:19.862Z,4.00
2022-09-18T03:05:47.897Z,7.00
2022-09-18T03:08:15.585Z,7.25
2022-09-18T03:10:43.153Z,8.25
2022-09-18T03:13:10.702Z,10.00
2022-09-18T03:15:38.236Z,8.50
2022-09-18T03:18:05.752Z,9.50
2022-09-18T03:20:33.588Z,7.50
2022-09-18T03:23:01.108Z,10.00
2022-09-18T03:25:28.660Z,10.50
2022-09-18T03:27:56.996Z,7.00
2022-09-18T03:30:24.574Z,9.75
2022-09-18T03:32:52.121Z,6.75
2022-09-18T03:35:19.712Z,10.00
2022-09-18T03:37:47.248Z,6.75
2022-09-18T03:40:16.322Z,8.50
2022-09-18T03:42:44.377Z,9.25
2022-09-18T03:45:12.157Z,7.00
2022-09-18T03:47:39.678Z,9.25
2022-09-18T03:50:07.625Z,7.00
2022-09-18T03:52:35.171Z,4.00
2022-09-18T03:55:02.745Z,9.00
2022-09-18T03:57:30.340Z,9.00
2022-09-18T03:59:57.890Z,9.25
2022-09-18T04:02:25.483Z,9.00
2022-09-18T04:04:54.322Z,9.00
2022-09-18T04:07:21.845Z,7.50
2022-09-18T04:09:49.777Z,3.00
2022-09-18T04:12:17.367Z,9.00
2022-09-18T04:14:44.919Z,0.00
2022-09-18T04:17:12.488Z,10.00
2022-09-18T04:19:40.074Z,7.00
2022-09-18T04:22:07.779Z,7.50
2022-09-18T04:24:39.789Z,8.00
2022-09-18T04:27:07.400Z,3.50
2022-09-18T04:29:34.958Z,7.50
2022-09-18T04:32:02.498Z,9.50
2022-09-18T04:34:30.319Z,8.00
2022-09-18T04:36:57.879Z,7.25
2022-09-18T04:39:25.398Z,6.50
2022-09-18T04:41:53.568Z,7.75
2022-09-18T04:44:21.095Z,6.00
2022-09-18T04:46:48.728Z,11.50
2022-09-18T04:49:16.369Z,6.50
2022-09-18T04:51:43.912Z,7.00
2022-09-18T04:54:12.320Z,9.25
2022-09-18T04:56:41.008Z,8.00
2022-09-18T04:59:08.756Z,6.25
2022-09-18T05:01:36.386Z,7.00
2022-09-18T05:04:04.009Z,7.00
2022-09-18T05:06:31.953Z,6.25
2022-09-18T05:08:59.596Z,6.25
2022-09-18T05:11:28.349Z,8.50
2022-09-18T05:13:56.989Z,5.50
2022-09-18T05:16:25.073Z,6.00
2022-09-18T05:18:53.256Z,6.00
2022-09-18T05:21:20.802Z,9.00
2022-09-18T05:23:48.400Z,8.00
2022-09-18T05:26:16.064Z,5.50
2022-09-18T05:28:43.623Z,6.50
2022-09-18T05:31:11.420Z,6.00
2022-09-18T05:33:41.348Z,4.00
2022-09-18T05:36:08.922Z,5.50
2022-09-18T05:38:36.849Z,6.25
2022-09-18T05:41:04.464Z,4.50
2022-09-18T05:43:32.407Z,3.75
2022-09-18T05:46:00.094Z,5.50
2022-09-18T05:48:27.836Z,5.00
2022-09-18T05:50:55.416Z,1.00
2022-09-18T05:53:22.993Z,5.00
2022-09-18T05:55:50.953Z,3.75
2022-09-18T05:58:18.572Z,4.50
2022-09-18T06:00:47.690Z,4.00
2022-09-18T06:03:15.385Z,3.50
2022-09-18T06:05:42.990Z,4.50
2022-09-18T06:08:11.039Z,3.00
2022-09-18T06:10:39.412Z,5.00
2022-09-18T06:13:07.177Z,2.50
2022-09-18T06:15:34.710Z,4.00
2022-09-18T06:18:02.290Z,4.00
2022-09-18T06:20:29.861Z,3.50
2022-09-18T06:22:57.791Z,3.00
2022-09-18T06:25:25.971Z,3.25
2022-09-18T06:27:58.645Z,1.50
2022-09-18T06:30:26.278Z,3.75
2022-09-18T06:32:54.265Z,3.75
2022-09-18T06:35:21.795Z,3.75
2022-09-18T06:37:49.586Z,4.00
2022-09-18T06:40:17.287Z,3.50
2022-09-18T06:42:46.154Z,3.25
2022-09-18T06:45:14.534Z,0.50
2022-09-18T06:47:42.097Z,3.25
2022-09-18T06:50:09.668Z,2.50
2022-09-18T06:52:37.262Z,3.00
2022-09-18T06:55:04.844Z,1.00
2022-09-18T06:57:32.865Z,3.00
2022-09-18T07:00:00.466Z,3.00
2022-09-18T07:02:28.116Z,4.00
2022-09-18T07:04:55.736Z,5.50
2022-09-18T07:07:23.776Z,2.00
2022-09-18T07:09:51.676Z,5.50
2022-09-18T07:12:19.322Z,4.00
2022-09-18T07:14:47.155Z,4.00
2022-09-18T07:17:18.279Z,4.00
2022-09-18T07:19:46.814Z,6.00
2022-09-18T07:22:15.239Z,6.25
2022-09-18T07:24:43.506Z,4.75
2022-09-18T07:27:11.296Z,4.00
2022-09-18T07:29:39.733Z,3.00
2022-09-18T07:32:07.272Z,5.50
2022-09-18T07:34:35.198Z,6.50
2022-09-18T07:37:03.703Z,6.00
2022-09-18T07:39:31.410Z,6.75
2022-09-18T07:41:58.964Z,5.00
2022-09-18T07:44:27.774Z,7.75
2022-09-18T07:46:56.071Z,6.50
2022-09-18T07:49:23.622Z,6.00
2022-09-18T07:51:52.104Z,7.00
2022-09-18T07:54:19.856Z,3.25
2022-09-18T07:56:47.415Z,2.50
2022-09-18T07:59:15.391Z,5.00
2022-09-18T08:01:43.092Z,6.25
2022-09-18T08:04:10.971Z,3.75
2022-09-18T08:06:38.600Z,6.75
2022-09-18T08:09:06.246Z,6.00
2022-09-18T08:11:34.288Z,7.00
2022-09-18T08:14:01.912Z,3.50
2022-09-18T08:16:29.739Z,4.50
2022-09-18T08:18:57.459Z,4.00
2022-09-18T08:21:25.043Z,4.50
2022-09-18T08:23:52.983Z,3.50
2022-09-18T08:26:22.509Z,4.50
2022-09-18T08:28:50.316Z,3.50
2022-09-18T08:31:17.981Z,4.00
2022-09-18T08:33:45.619Z,3.50
2022-09-18T08:36:13.623Z,5.00
2022-09-18T08:38:41.198Z,6.50
2022-09-18T08:41:09.151Z,5.00
2022-09-18T08:43:36.804Z,3.50
2022-09-18T08:46:04.378Z,6.50
2022-09-18T08:48:32.349Z,3.75
2022-09-18T08:51:00.075Z,4.00
2022-09-18T08:53:27.710Z,0.75
2022-09-18T08:55:55.795Z,3.25
2022-09-18T08:58:23.469Z,3.50
2022-09-18T09:00:51.454Z,0.75
2022-09-18T09:03:19.071Z,1.00
2022-09-18T09:05:46.904Z,1.50
2022-09-18T09:08:14.519Z,3.00
2022-09-18T09:10:42.227Z,1.00
2022-09-18T09:13:10.232Z,1.00
2022-09-18T09:15:37.867Z,2.50
2022-09-18T09:18:06.824Z,0.25
2022-09-18T09:20:34.486Z,1.00
2022-09-18T09:23:02.155Z,1.00
2022-09-18T09:25:30.182Z,2.25
2022-09-18T09:27:57.793Z,1.00
2022-09-18T09:30:25.412Z,1.00
2022-09-18T09:32:53.000Z,0.50
2022-09-18T09:35:20.657Z,0.25
2022-09-18T09:37:48.679Z,0.50
2022-09-18T09:40:16.335Z,0.00
2022-09-18T09:42:44.169Z,0.75
2022-09-18T09:45:11.793Z,1.00
2022-09-18T09:47:39.512Z,1.00
2022-09-18T09:50:07.225Z,1.50
2022-09-18T09:52:35.044Z,1.00
2022-09-18T09:55:02.706Z,1.00
2022-09-18T09:57:30.378Z,2.00
2022-09-18T09:59:58.320Z,2.50
2022-09-18T10:02:26.410Z,3.00
2022-09-18T10:04:54.104Z,2.50
2022-09-18T10:07:21.931Z,4.50
2022-09-18T10:09:49.598Z,3.75
2022-09-18T10:12:17.293Z,3.00
2022-09-18T10:14:45.307Z,1.50
2022-09-18T10:17:12.894Z,3.00
2022-09-18T10:19:40.608Z,6.00
2022-09-18T10:22:08.926Z,4.00
2022-09-18T10:24:36.593Z,4.00
2022-09-18T10:27:04.617Z,3.75
2022-09-18T10:29:35.753Z,3.75
2022-09-18T10:32:03.625Z,4.00
2022-09-18T10:34:31.280Z,3.25
2022-09-18T10:36:58.880Z,1.50
2022-09-18T10:39:30.630Z,3.50
2022-09-18T10:41:59.293Z,4.00
2022-09-18T10:44:27.167Z,3.75
2022-09-18T10:46:54.873Z,3.50
2022-09-18T10:49:22.565Z,3.00
2022-09-18T10:51:50.569Z,3.00
2022-09-18T10:54:18.224Z,3.00
2022-09-18T10:56:46.079Z,3.00
2022-09-18T10:59:13.648Z,3.00
2022-09-18T11:01:44.693Z,2.00
2022-09-18T11:04:13.564Z,3.00
2022-09-18T11:06:41.582Z,1.00
2022-09-18T11:09:09.448Z,0.50
2022-09-18T11:11:37.099Z,0.00
2022-09-18T11:14:04.783Z,1.00
2022-09-18T11:16:32.865Z,3.00
2022-09-18T11:19:02.957Z,9.00
2022-09-18T11:21:34.475Z,3.00
2022-09-18T11:24:02.226Z,5.50
2022-09-18T11:26:30.031Z,3.00
2022-09-18T11:28:58.559Z,5.00
2022-09-18T11:31:26.317Z,3.00
2022-09-18T11:33:54.268Z,3.00
2022-09-18T11:36:22.051Z,3.00
2022-09-18T11:38:49.721Z,4.50
2022-09-18T11:41:17.411Z,3.75
2022-09-18T11:43:45.018Z,4.50
2022-09-18T11:46:12.849Z,7.75
2022-09-18T11:48:40.512Z,17.00
2022-09-18T11:51:08.471Z,11.00
2022-09-18T11:53:36.631Z,6.50
2022-09-18T11:56:04.272Z,5.00
2022-09-18T11:58:32.363Z,6.00
2022-09-18T12:01:04.342Z,6.00
2022-09-18T12:03:32.806Z,5.00
2022-09-18T12:06:00.891Z,4.00
2022-09-18T12:08:27.322Z,1.00
2022-09-18T12:10:55.003Z,0.00
2022-09-18T12:13:22.700Z,6.50
2022-09-18T12:15:50.339Z,3.00
2022-09-18T12:18:18.321Z,1.50
2022-09-18T12:20:46.054Z,3.00
2022-09-18T12:23:13.893Z,4.00
2022-09-18T12:25:41.513Z,3.00
2022-09-18T12:28:09.153Z,1.00
2022-09-18T12:30:37.132Z,1.00
2022-09-18T12:33:04.725Z,1.00
2022-09-18T12:35:32.513Z,1.00
2022-09-18T12:38:00.240Z,1.00
2022-09-18T12:40:29.101Z,3.00
2022-09-18T12:42:57.156Z,2.00
2022-09-18T12:45:24.894Z,1.00
2022-09-18T12:47:52.769Z,3.00
2022-09-18T12:50:20.454Z,3.00
2022-09-18T12:53:08.292Z,3.00
2022-09-18T12:55:36.716Z,4.50
2022-09-18T12:58:04.479Z,4.50
2022-09-18T13:00:32.102Z,4.00
2022-09-18T13:02:59.796Z,5.00
2022-09-18T13:05:27.400Z,4.00
2022-09-18T13:07:55.426Z,5.50
2022-09-18T13:10:23.225Z,4.00
2022-09-18T13:12:50.848Z,3.00
2022-09-18T13:15:18.496Z,6.00
2022-09-18T13:17:47.349Z,0.00
2022-09-18T13:20:15.011Z,1.00
2022-09-18T13:22:42.886Z,0.25
2022-09-18T13:25:11.094Z,1.00
2022-09-18T13:27:39.527Z,1.00
2022-09-18T13:30:07.436Z,0.00
2022-09-18T13:32:37.744Z,0.00
2022-09-18T13:35:05.965Z,0.50
2022-09-18T13:37:33.606Z,0.00
2022-09-18T13:40:11.854Z,0.00
2022-09-18T13:42:39.858Z,0.00
2022-09-18T13:45:07.528Z,0.00
2022-09-18T13:47:35.134Z,1.50
2022-09-18T13:50:05.792Z,2.50
2022-09-18T13:52:33.503Z,2.00
2022-09-18T13:55:01.493Z,2.75
2022-09-18T13:57:29.628Z,0.00
2022-09-18T13:59:58.761Z,0.00
2022-09-18T14:02:26.423Z,0.00
2022-09-18T14:04:54.199Z,1.00
2022-09-18T14:07:22.229Z,1.00
2022-09-18T14:09:50.020Z,0.00
2022-09-18T14:12:17.704Z,0.00
2022-09-18T14:14:45.423Z,0.00
2022-09-18T14:17:13.108Z,0.75
2022-09-18T14:19:41.080Z,0.50
2022-09-18T14:22:09.763Z,0.50
2022-09-18T14:24:37.382Z,0.00
2022-09-18T14:27:05.021Z,0.75
2022-09-18T14:29:32.761Z,0.00
2022-09-18T14:32:00.835Z,0.00
2022-09-18T14:34:28.530Z,0.00
2022-09-18T14:36:56.498Z,0.00
2022-09-18T14:39:24.291Z,0.75
2022-09-18T14:41:51.902Z,0.00
2022-09-18T14:44:19.973Z,0.25
2022-09-18T14:46:49.909Z,0.50
2022-09-18T14:49:17.543Z,0.50
2022-09-18T14:52:03.180Z,0.50
2022-09-18T14:54:32.166Z,0.25
2022-09-18T14:57:00.119Z,0.50
2022-09-18T14:59:28.976Z,1.00
2022-09-18T15:01:56.660Z,1.00
2022-09-18T15:04:26.069Z,0.00
2022-09-18T15:06:54.247Z,1.00
2022-09-18T15:09:21.881Z,0.00
2022-09-18T15:12:02.242Z,0.00
2022-09-18T15:14:31.049Z,0.00
2022-09-18T15:16:58.976Z,0.75
2022-09-18T15:19:26.744Z,1.00
2022-09-18T15:21:54.499Z,0.00
2022-09-18T15:24:22.147Z,0.00
2022-09-18T15:26:53.174Z,0.50
2022-09-18T15:29:23.727Z,0.00
2022-09-18T15:31:51.715Z,1.00
2022-09-18T15:34:19.499Z,0.00
2022-09-18T15:36:47.266Z,0.50
2022-09-18T15:39:14.959Z,1.00
2022-09-18T15:41:43.016Z,0.33
2022-09-18T15:44:10.899Z,0.00
2022-09-18T15:46:39.062Z,0.50
2022-09-18T15:49:06.762Z,2.50
2022-09-18T15:51:34.412Z,1.00
2022-09-18T15:54:02.411Z,0.00
2022-09-18T15:56:30.902Z,1.00
2022-09-18T15:58:59.196Z,1.00
2022-09-18T16:01:27.328Z,3.25
2022-09-18T16:03:55.315Z,1.00
2022-09-18T16:06:23.379Z,0.75
2022-09-18T16:08:52.383Z,6.00
2022-09-18T16:11:20.028Z,1.00
2022-09-18T16:13:47.743Z,3.00
2022-09-18T16:16:16.020Z,1.00
2022-09-18T16:18:44.160Z,1.00
2022-09-18T16:21:12.356Z,1.00
2022-09-18T16:23:39.954Z,2.50
2022-09-18T16:26:07.595Z,1.00
2022-09-18T16:28:35.397Z,3.00
2022-09-18T16:31:03.813Z,1.00
2022-09-18T16:33:31.480Z,0.00
2022-09-18T16:35:59.210Z,3.00
2022-09-18T16:38:26.913Z,1.00
2022-09-18T16:40:54.537Z,3.00
2022-09-18T16:43:22.489Z,1.00
2022-09-18T16:45:50.107Z,1.00
2022-09-18T16:48:17.850Z,1.00
2022-09-18T16:50:45.670Z,1.00
2022-09-18T16:53:13.573Z,1.00
2022-09-18T16:55:41.544Z,1.00
2022-09-18T16:58:09.594Z,0.50
2022-09-18T17:00:37.878Z,1.00
2022-09-18T17:03:05.643Z,3.00
2022-09-18T17:05:33.486Z,0.50
2022-09-18T17:08:01.551Z,2.00
2022-09-18T17:10:30.514Z,2.50
2022-09-18T17:12:58.282Z,1.00
2022-09-18T17:15:26.306Z,1.00
2022-09-18T17:17:53.954Z,1.50
2022-09-18T17:20:22.026Z,0.00
2022-09-18T17:22:50.802Z,0.00
2022-09-18T17:25:18.418Z,0.00
2022-09-18T17:27:46.209Z,0.00
2022-09-18T17:30:13.844Z,0.00
2022-09-18T17:32:41.861Z,0.00
2022-09-18T17:35:09.814Z,1.00
2022-09-18T17:37:38.126Z,0.75
2022-09-18T17:40:05.909Z,0.00
2022-09-18T17:42:33.703Z,0.25
2022-09-18T17:45:01.800Z,1.00
2022-09-18T17:47:29.721Z,0.00
2022-09-18T17:49:57.432Z,1.00
2022-09-18T17:52:25.113Z,0.00
2022-09-18T17:54:52.748Z,0.00
2022-09-18T17:57:20.493Z,0.00
2022-09-18T17:59:49.892Z,0.00
2022-09-18T18:02:17.696Z,0.00
2022-09-18T18:04:45.418Z,0.50
2022-09-18T18:07:13.242Z,0.00
2022-09-18T18:09:41.437Z,0.50
2022-09-18T18:12:09.441Z,0.00
2022-09-18T18:14:37.126Z,0.00
2022-09-18T18:17:05.010Z,0.75
2022-09-18T18:19:32.817Z,0.00
2022-09-18T18:22:00.919Z,0.00
2022-09-18T18:24:29.898Z,0.00
2022-09-18T18:26:57.753Z,0.00
2022-09-18T18:29:25.407Z,0.00
2022-09-18T18:31:53.714Z,0.00
2022-09-18T18:34:22.959Z,0.00
2022-09-18T18:36:51.153Z,0.00
2022-09-18T18:39:20.121Z,0.00
2022-09-18T18:41:48.723Z,0.00
2022-09-18T18:44:16.428Z,0.00
2022-09-18T18:46:44.998Z,0.00
2022-09-18T18:49:13.254Z,0.00
2022-09-18T18:51:43.826Z,0.00
2022-09-18T18:54:11.453Z,1.00
2022-09-18T18:56:39.089Z,0.50
2022-09-18T18:59:07.327Z,0.00
2022-09-18T19:01:35.987Z,0.00
2022-09-18T19:04:06.706Z,0.00
2022-09-18T19:06:36.347Z,0.00
2022-09-18T19:09:03.987Z,2.00
2022-09-18T19:11:31.814Z,1.00
2022-09-18T19:14:00.268Z,0.00
2022-09-18T19:16:28.031Z,0.25
2022-09-18T19:18:55.725Z,0.00
2022-09-18T19:21:23.375Z,0.00
2022-09-18T19:23:52.730Z,1.00
2022-09-18T19:26:21.389Z,0.75
2022-09-18T19:28:49.430Z,0.00
2022-09-18T19:31:17.632Z,0.00
2022-09-18T19:33:45.363Z,0.50
2022-09-18T19:36:13.321Z,0.25
2022-09-18T19:38:41.111Z,1.00
2022-09-18T19:41:09.276Z,0.00
2022-09-18T19:43:37.370Z,1.00
2022-09-18T19:46:04.969Z,0.00
2022-09-18T19:48:32.917Z,0.00
2022-09-18T19:51:01.677Z,0.50
2022-09-18T19:53:29.319Z,1.00
2022-09-18T19:55:56.965Z,1.00
2022-09-18T19:58:24.564Z,1.00
2022-09-18T20:00:52.600Z,0.00
2022-09-18T20:03:21.345Z,1.00
2022-09-18T20:05:48.981Z,0.00
2022-09-18T20:08:16.578Z,0.25
2022-09-18T20:10:44.393Z,0.00
2022-09-18T20:13:13.714Z,1.00
2022-09-18T20:15:41.321Z,0.75
2022-09-18T20:18:09.043Z,1.00
2022-09-18T20:20:37.830Z,0.00
2022-09-18T20:23:05.489Z,0.00
2022-09-18T20:25:33.449Z,0.75
2022-09-18T20:28:02.265Z,1.00
2022-09-18T20:30:29.893Z,0.00
2022-09-18T20:32:57.547Z,0.75
2022-09-18T20:35:25.135Z,0.00
2022-09-18T20:37:53.666Z,1.50
2022-09-18T20:40:21.357Z,1.00
2022-09-18T20:42:51.628Z,0.50
2022-09-18T20:45:19.374Z,1.00
2022-09-18T20:47:47.437Z,0.50
2022-09-18T20:50:15.428Z,1.00
2022-09-18T20:52:43.162Z,1.00
2022-09-18T20:55:12.619Z,1.00
2022-09-18T20:57:40.212Z,0.75
2022-09-18T21:00:07.861Z,0.00
2022-09-18T21:02:36.650Z,0.75
2022-09-18T21:05:04.442Z,3.50
2022-09-18T21:07:32.298Z,1.00
2022-09-18T21:10:00.021Z,3.75
2022-09-18T21:12:29.355Z,4.50
2022-09-18T21:14:57.293Z,3.75
2022-09-18T21:17:27.754Z,4.50
2022-09-18T21:19:56.066Z,4.00
2022-09-18T21:22:23.669Z,3.75
2022-09-18T21:24:51.269Z,1.00
2022-09-18T21:27:19.220Z,3.75
2022-09-18T21:29:46.989Z,4.00
2022-09-18T21:32:14.620Z,3.00
2022-09-18T21:34:43.974Z,3.75
2022-09-18T21:37:12.170Z,3.50
2022-09-18T21:39:40.188Z,2.50
2022-09-18T21:42:07.883Z,2.00
2022-09-18T21:44:37.727Z,2.00
2022-09-18T21:47:05.356Z,2.00
2022-09-18T21:49:33.005Z,4.00
2022-09-18T21:52:00.980Z,5.00
2022-09-18T21:54:28.957Z,4.50
2022-09-18T21:56:56.658Z,2.50
2022-09-18T21:59:24.273Z,5.50
2022-09-18T22:01:54.953Z,3.00
2022-09-18T22:04:23.206Z,2.00
2022-09-18T22:06:51.000Z,3.75
2022-09-18T22:09:18.640Z,6.00
2022-09-18T22:11:46.263Z,1.00
2022-09-18T22:14:13.925Z,3.00
2022-09-18T22:16:43.530Z,3.25
2022-09-18T22:19:11.123Z,6.50
2022-09-18T22:21:38.670Z,1.00
2022-09-18T22:24:08.894Z,3.00
2022-09-18T22:26:36.574Z,2.00
2022-09-18T22:29:07.056Z,2.00
2022-09-18T22:31:34.810Z,3.00
2022-09-18T22:34:02.412Z,4.00
2022-09-18T22:36:29.973Z,1.00
2022-09-18T22:38:57.910Z,1.00
2022-09-18T22:41:25.838Z,2.00
2022-09-18T22:43:53.633Z,1.00
2022-09-18T22:46:21.738Z,1.00
2022-09-18T22:48:49.368Z,1.00
2022-09-18T22:51:18.444Z,1.00
2022-09-18T22:53:46.222Z,0.00
2022-09-18T22:56:13.956Z,0.25
2022-09-18T22:58:41.503Z,1.50
2022-09-18T23:01:09.126Z,1.00
2022-09-18T23:03:36.937Z,1.00
2022-09-18T23:06:04.993Z,0.25
2022-09-18T23:08:33.622Z,1.50
2022-09-18T23:11:01.193Z,0.50
2022-09-18T23:13:28.770Z,1.00
2022-09-18T23:15:56.459Z,0.25
2022-09-18T23:18:24.448Z,0.00
2022-09-18T23:20:52.212Z,1.00
2022-09-18T23:23:19.855Z,0.25
2022-09-18T23:25:47.417Z,0.50
2022-09-18T23:28:15.587Z,1.00
2022-09-18T23:30:43.847Z,0.00
2022-09-18T23:33:11.601Z,0.00
2022-09-18T23:35:39.148Z,0.00
2022-09-18T23:38:06.729Z,0.75
2022-09-18T23:40:35.841Z,0.50
2022-09-18T23:43:03.847Z,0.25
2022-09-18T23:45:31.445Z,2.50
2022-09-18T23:47:58.971Z,0.25
2022-09-18T23:50:26.490Z,0.00
2022-09-18T23:52:54.767Z,1.00
2022-09-18T23:55:23.554Z,0.75
2022-09-18T23:57:51.407Z,0.00
